Terminal Aerodrome Forecast
Issued by NWS Wilmington, OH

Current Version | Previous Version | Graphics & Text | Print | Product List | Glossary On
Versions: 1 2 3 4 5 6 7 8 9 10 11 12 13 14 15 16 17
000
FTUS41 KILN 252300
TAFCMH
TAF
KCMH 252330Z 2600/2624 14005KT P6SM FEW060
     FM261500 21005KT P6SM SCT030 SCT250
     FM262300 24005KT P6SM SCT250=

USA.gov is the U.S. government's official web portal to all federal, state and local government web resources and services.